sensor_id;sensor_type;location;lat;lon;timestamp;pressure;altitude;pressure_sealevel;temperature;humidity
55675;BME280;41562;44.330;23.802;2022-12-18T00:01:40;101071.34;;;4.27;97.57
55675;BME280;41562;44.330;23.802;2022-12-18T00:04:18;101073.38;;;4.32;96.72
55675;BME280;41562;44.330;23.802;2022-12-18T00:06:50;101074.31;;;4.51;96.22
55675;BME280;41562;44.330;23.802;2022-12-18T00:09:21;101087.53;;;4.51;95.27
55675;BME280;41562;44.330;23.802;2022-12-18T00:11:53;101088.59;;;4.36;96.85
55675;BME280;41562;44.330;23.802;2022-12-18T00:14:24;101083.19;;;4.18;96.29
55675;BME280;41562;44.330;23.802;2022-12-18T00:16:52;101094.56;;;4.25;97.45
55675;BME280;41562;44.330;23.802;2022-12-18T00:19:26;101096.97;;;4.40;96.88
55675;BME280;41562;44.330;23.802;2022-12-18T00:21:54;101099.03;;;4.25;95.46
55675;BME280;41562;44.330;23.802;2022-12-18T00:24:27;101097.25;;;4.12;95.96
55675;BME280;41562;44.330;23.802;2022-12-18T00:26:55;101094.56;;;4.25;100.00
55675;BME280;41562;44.330;23.802;2022-12-18T00:29:27;101098.22;;;4.24;95.91
55675;BME280;41562;44.330;23.802;2022-12-18T00:31:54;101097.84;;;4.14;95.43
55675;BME280;41562;44.330;23.802;2022-12-18T00:34:22;101095.03;;;4.02;96.27
55675;BME280;41562;44.330;23.802;2022-12-18T00:36:49;101101.13;;;4.16;100.00
55675;BME280;41562;44.330;23.802;2022-12-18T00:39:22;101103.16;;;4.14;96.64
55675;BME280;41562;44.330;23.802;2022-12-18T00:41:53;101117.41;;;4.00;95.77
55675;BME280;41562;44.330;23.802;2022-12-18T00:44:23;101114.19;;;3.98;96.33
55675;BME280;41562;44.330;23.802;2022-12-18T00:46:50;101122.69;;;4.07;99.70
55675;BME280;41562;44.330;23.802;2022-12-18T00:49:23;101121.47;;;4.09;97.32
55675;BME280;41562;44.330;23.802;2022-12-18T00:51:54;101122.50;;;3.95;97.25
55675;BME280;41562;44.330;23.802;2022-12-18T00:54:21;101129.63;;;4.08;95.90
55675;BME280;41562;44.330;23.802;2022-12-18T00:56:58;101127.59;;;4.16;97.96
55675;BME280;41562;44.330;23.802;2022-12-18T00:59:29;101135.09;;;4.19;94.93
55675;BME280;41562;44.330;23.802;2022-12-18T01:01:57;101133.28;;;4.00;95.46
55675;BME280;41562;44.330;23.802;2022-12-18T01:04:25;101146.94;;;4.17;94.80
55675;BME280;41562;44.330;23.802;2022-12-18T01:06:53;101144.88;;;4.19;98.16
55675;BME280;41562;44.330;23.802;2022-12-18T01:09:20;101142.78;;;4.40;96.44
55675;BME280;41562;44.330;23.802;2022-12-18T01:11:48;101145.50;;;4.14;94.37
55675;BME280;41562;44.330;23.802;2022-12-18T01:14:15;101147.94;;;4.09;94.34
55675;BME280;41562;44.330;23.802;2022-12-18T01:16:43;101142.59;;;4.35;100.00
55675;BME280;41562;44.330;23.802;2022-12-18T01:19:17;101136.09;;;4.25;96.10
55675;BME280;41562;44.330;23.802;2022-12-18T01:21:44;101141.78;;;4.41;93.11
55675;BME280;41562;44.330;23.802;2022-12-18T01:24:12;101150.97;;;4.19;93.30
55675;BME280;41562;44.330;23.802;2022-12-18T01:26:39;101153.81;;;4.18;96.21
55675;BME280;41562;44.330;23.802;2022-12-18T01:29:09;101156.06;;;4.14;95.49
55675;BME280;41562;44.330;23.802;2022-12-18T01:31:39;101165.84;;;4.20;93.91
55675;BME280;41562;44.330;23.802;2022-12-18T01:34:11;101159.75;;;4.00;94.44
55675;BME280;41562;44.330;23.802;2022-12-18T01:36:38;101164.84;;;4.15;93.62
55675;BME280;41562;44.330;23.802;2022-12-18T01:39:11;101163.00;;;4.15;96.13
55675;BME280;41562;44.330;23.802;2022-12-18T01:41:39;101159.34;;;4.03;94.24
55675;BME280;41562;44.330;23.802;2022-12-18T01:47:49;101163.19;;;4.20;97.36
55675;BME280;41562;44.330;23.802;2022-12-18T01:50:23;101166.66;;;4.08;94.27
55675;BME280;41562;44.330;23.802;2022-12-18T01:52:58;101165.22;;;4.05;95.23
55675;BME280;41562;44.330;23.802;2022-12-18T01:55:30;101165.28;;;3.92;93.56
55675;BME280;41562;44.330;23.802;2022-12-18T01:58:02;101176.44;;;4.14;96.85
55675;BME280;41562;44.330;23.802;2022-12-18T02:00:33;101177.25;;;4.14;95.48
55675;BME280;41562;44.330;23.802;2022-12-18T02:03:02;101185.81;;;4.16;92.80
55675;BME280;41562;44.330;23.802;2022-12-18T02:16:25;101185.81;;;4.10;92.62
55675;BME280;41562;44.330;23.802;2022-12-18T02:19:04;101188.22;;;4.11;94.46
55675;BME280;41562;44.330;23.802;2022-12-18T02:22:44;101197.81;;;4.05;92.49
55675;BME280;41562;44.330;23.802;2022-12-18T02:27:53;101193.56;;;4.04;98.89
55675;BME280;41562;44.330;23.802;2022-12-18T02:30:23;101193.13;;;4.27;90.94
55675;BME280;41562;44.330;23.802;2022-12-18T02:32:55;101193.31;;;3.99;92.99
55675;BME280;41562;44.330;23.802;2022-12-18T02:35:29;101200.44;;;3.86;94.01
55675;BME280;41562;44.330;23.802;2022-12-18T02:37:57;101208.19;;;3.94;96.88
55675;BME280;41562;44.330;23.802;2022-12-18T02:40:29;101209.22;;;4.06;95.92
55675;BME280;41562;44.330;23.802;2022-12-18T02:43:06;101220.00;;;3.85;94.36
55675;BME280;41562;44.330;23.802;2022-12-18T02:45:34;101213.44;;;3.68;94.14
55675;BME280;41562;44.330;23.802;2022-12-18T02:48:02;101207.78;;;3.84;100.00
55675;BME280;41562;44.330;23.802;2022-12-18T02:50:36;101209.81;;;3.82;94.78
55675;BME280;41562;44.330;23.802;2022-12-18T02:55:59;101214.06;;;3.70;96.05
55675;BME280;41562;44.330;23.802;2022-12-18T03:04:26;101222.63;;;3.72;93.52
55675;BME280;41562;44.330;23.802;2022-12-18T03:07:02;101226.69;;;3.68;94.86
55675;BME280;41562;44.330;23.802;2022-12-18T03:09:38;101238.91;;;3.82;95.84
55675;BME280;41562;44.330;23.802;2022-12-18T03:12:18;101236.69;;;3.79;93.98
55675;BME280;41562;44.330;23.802;2022-12-18T03:15:13;101238.50;;;3.72;93.75
55675;BME280;41562;44.330;23.802;2022-12-18T03:17:57;101243.59;;;3.93;98.09
55675;BME280;41562;44.330;23.802;2022-12-18T03:20:32;101250.13;;;3.84;93.50
55675;BME280;41562;44.330;23.802;2022-12-18T03:23:12;101257.84;;;3.79;93.26
55675;BME280;41562;44.330;23.802;2022-12-18T03:25:46;101252.94;;;3.76;92.74
55675;BME280;41562;44.330;23.802;2022-12-18T03:28:21;101257.06;;;3.91;98.68
55675;BME280;41562;44.330;23.802;2022-12-18T03:30:55;101269.22;;;3.66;94.32
55675;BME280;41562;44.330;23.802;2022-12-18T03:33:52;101271.66;;;3.81;92.18
55675;BME280;41562;44.330;23.802;2022-12-18T03:36:23;101271.44;;;3.62;92.00
55675;BME280;41562;44.330;23.802;2022-12-18T03:38:51;101274.09;;;3.69;96.89
55675;BME280;41562;44.330;23.802;2022-12-18T03:41:38;101276.34;;;3.66;93.12
55675;BME280;41562;44.330;23.802;2022-12-18T03:47:25;101288.13;;;3.70;92.65
55675;BME280;41562;44.330;23.802;2022-12-18T03:50:18;101301.78;;;3.80;92.19
55675;BME280;41562;44.330;23.802;2022-12-18T03:53:05;101297.88;;;3.69;92.55
55675;BME280;41562;44.330;23.802;2022-12-18T03:55:36;101302.97;;;3.64;91.45
55675;BME280;41562;44.330;23.802;2022-12-18T03:58:07;101300.13;;;3.59;93.21
55675;BME280;41562;44.330;23.802;2022-12-18T04:00:36;101308.81;;;3.46;93.51
55675;BME280;41562;44.330;23.802;2022-12-18T04:03:04;101306.34;;;3.45;93.24
55675;BME280;41562;44.330;23.802;2022-12-18T04:05:37;101306.56;;;3.50;92.80
55675;BME280;41562;44.330;23.802;2022-12-18T04:08:10;101311.84;;;3.43;94.26
55675;BME280;41562;44.330;23.802;2022-12-18T04:10:38;101309.03;;;3.51;93.22
55675;BME280;41562;44.330;23.802;2022-12-18T04:13:06;101316.78;;;3.53;92.91
55675;BME280;41562;44.330;23.802;2022-12-18T04:15:38;101325.75;;;3.58;91.62
55675;BME280;41562;44.330;23.802;2022-12-18T04:18:07;101320.66;;;3.63;95.72
55675;BME280;41562;44.330;23.802;2022-12-18T04:20:37;101331.84;;;3.59;92.30
55675;BME280;41562;44.330;23.802;2022-12-18T04:23:08;101335.56;;;3.78;90.77
55675;BME280;41562;44.330;23.802;2022-12-18T04:25:35;101341.34;;;3.47;92.63
55675;BME280;41562;44.330;23.802;2022-12-18T04:28:03;101341.97;;;3.55;95.73
55675;BME280;41562;44.330;23.802;2022-12-18T04:30:30;101337.09;;;3.52;92.49
55675;BME280;41562;44.330;23.802;2022-12-18T04:32:58;101343.53;;;3.84;89.75
55675;BME280;41562;44.330;23.802;2022-12-18T04:35:25;101339.81;;;3.72;91.75
55675;BME280;41562;44.330;23.802;2022-12-18T04:37:53;101339.00;;;3.72;92.17
55675;BME280;41562;44.330;23.802;2022-12-18T04:40:23;101345.47;;;3.62;92.59
55675;BME280;41562;44.330;23.802;2022-12-18T04:42:53;101347.69;;;3.52;91.55
55675;BME280;41562;44.330;23.802;2022-12-18T04:45:20;101352.75;;;3.47;91.47
55675;BME280;41562;44.330;23.802;2022-12-18T04:47:48;101359.03;;;3.46;90.84
55675;BME280;41562;44.330;23.802;2022-12-18T04:50:15;101359.56;;;3.35;91.17
55675;BME280;41562;44.330;23.802;2022-12-18T04:52:43;101364.34;;;3.46;92.21
55675;BME280;41562;44.330;23.802;2022-12-18T04:55:12;101370.28;;;3.61;89.99
55675;BME280;41562;44.330;23.802;2022-12-18T04:57:58;101366.44;;;3.64;91.24
55675;BME280;41562;44.330;23.802;2022-12-18T05:00:32;101373.97;;;3.74;90.59
55675;BME280;41562;44.330;23.802;2022-12-18T05:03:01;101370.69;;;3.58;90.39
55675;BME280;41562;44.330;23.802;2022-12-18T05:05:29;101377.84;;;3.64;90.41
55675;BME280;41562;44.330;23.802;2022-12-18T05:07:57;101379.81;;;3.56;90.41
55675;BME280;41562;44.330;23.802;2022-12-18T05:10:34;101379.69;;;3.71;90.90
55675;BME280;41562;44.330;23.802;2022-12-18T05:13:05;101385.09;;;3.56;90.14
55675;BME280;41562;44.330;23.802;2022-12-18T05:15:33;101388.41;;;3.64;89.91
55675;BME280;41562;44.330;23.802;2022-12-18T05:18:05;101397.34;;;3.63;90.59
55675;BME280;41562;44.330;23.802;2022-12-18T05:20:33;101398.56;;;3.68;90.23
55675;BME280;41562;44.330;23.802;2022-12-18T05:23:00;101401.78;;;3.56;89.53
55675;BME280;41562;44.330;23.802;2022-12-18T05:25:28;101399.78;;;3.58;89.32
55675;BME280;41562;44.330;23.802;2022-12-18T05:27:56;101402.69;;;3.77;94.37
55675;BME280;41562;44.330;23.802;2022-12-18T05:30:24;101408.94;;;3.62;90.35
55675;BME280;41562;44.330;23.802;2022-12-18T05:32:51;101408.38;;;3.74;89.04
55675;BME280;41562;44.330;23.802;2022-12-18T05:35:19;101416.25;;;3.60;89.63
55675;BME280;41562;44.330;23.802;2022-12-18T05:37:47;101422.38;;;3.68;90.55
55675;BME280;41562;44.330;23.802;2022-12-18T05:40:14;101423.91;;;3.90;90.49
55675;BME280;41562;44.330;23.802;2022-12-18T05:42:42;101428.78;;;3.86;86.93
55675;BME280;41562;44.330;23.802;2022-12-18T05:45:11;101429.19;;;3.83;86.63
55675;BME280;41562;44.330;23.802;2022-12-18T05:47:48;101436.09;;;3.84;85.77
55675;BME280;41562;44.330;23.802;2022-12-18T05:50:19;101446.06;;;3.82;86.56
55675;BME280;41562;44.330;23.802;2022-12-18T05:52:52;101444.22;;;3.83;86.15
55675;BME280;41562;44.330;23.802;2022-12-18T05:55:25;101444.56;;;7.11;82.87
55675;BME280;41562;44.330;23.802;2022-12-18T05:57:55;101459.41;;;8.34;78.26
55675;BME280;41562;44.330;23.802;2022-12-18T06:00:27;101460.81;;;8.48;73.46
55675;BME280;41562;44.330;23.802;2022-12-18T06:02:55;101463.06;;;9.16;68.63
55675;BME280;41562;44.330;23.802;2022-12-18T06:05:26;101469.47;;;8.74;68.93
55675;BME280;41562;44.330;23.802;2022-12-18T06:07:54;101467.81;;;9.14;70.92
55675;BME280;41562;44.330;23.802;2022-12-18T06:10:22;101478.06;;;7.98;70.64
55675;BME280;41562;44.330;23.802;2022-12-18T06:12:50;101485.47;;;7.10;75.80
55675;BME280;41562;44.330;23.802;2022-12-18T06:15:18;101485.69;;;6.52;80.78
55675;BME280;41562;44.330;23.802;2022-12-18T06:17:53;101488.59;;;6.06;77.52
55675;BME280;41562;44.330;23.802;2022-12-18T06:20:23;101489.53;;;6.25;83.67
55675;BME280;41562;44.330;23.802;2022-12-18T06:23:01;101496.97;;;5.96;80.32
55675;BME280;41562;44.330;23.802;2022-12-18T06:25:29;101507.06;;;5.55;83.88
55675;BME280;41562;44.330;23.802;2022-12-18T06:27:59;101506.81;;;5.63;86.84
55675;BME280;41562;44.330;23.802;2022-12-18T06:30:27;101518.91;;;5.33;84.88
55675;BME280;41562;44.330;23.802;2022-12-18T06:32:58;101526.19;;;5.70;80.92
55675;BME280;41562;44.330;23.802;2022-12-18T06:35:34;101528.88;;;5.44;82.28
55675;BME280;41562;44.330;23.802;2022-12-18T06:38:06;101522.50;;;6.49;80.84
55675;BME280;41562;44.330;23.802;2022-12-18T06:40:39;101530.47;;;6.86;72.41
55675;BME280;41562;44.330;23.802;2022-12-18T06:43:32;101540.09;;;5.46;79.96
55675;BME280;41562;44.330;23.802;2022-12-18T06:46:22;101545.09;;;4.62;85.90
55675;BME280;41562;44.330;23.802;2022-12-18T06:49:12;101538.47;;;4.31;90.35
55675;BME280;41562;44.330;23.802;2022-12-18T06:51:59;101549.88;;;4.32;87.92
55675;BME280;41562;44.330;23.802;2022-12-18T06:54:46;101545.53;;;4.18;86.81
55675;BME280;41562;44.330;23.802;2022-12-18T06:57:17;101555.34;;;4.24;87.76
55675;BME280;41562;44.330;23.802;2022-12-18T06:59:45;101562.44;;;4.10;88.75
55675;BME280;41562;44.330;23.802;2022-12-18T07:02:24;101563.09;;;4.25;87.85
55675;BME280;41562;44.330;23.802;2022-12-18T07:04:55;101560.06;;;4.28;85.76
55675;BME280;41562;44.330;23.802;2022-12-18T07:07:25;101571.91;;;4.39;90.87
55675;BME280;41562;44.330;23.802;2022-12-18T07:09:56;101568.41;;;4.86;88.23
55675;BME280;41562;44.330;23.802;2022-12-18T07:12:24;101571.94;;;5.26;81.69
55675;BME280;41562;44.330;23.802;2022-12-18T07:14:54;101574.56;;;5.79;84.19
55675;BME280;41562;44.330;23.802;2022-12-18T07:17:25;101579.69;;;6.00;81.27
55675;BME280;41562;44.330;23.802;2022-12-18T07:20:02;101582.34;;;5.60;84.73
55675;BME280;41562;44.330;23.802;2022-12-18T07:22:30;101585.81;;;5.61;79.17
55675;BME280;41562;44.330;23.802;2022-12-18T07:24:59;101596.19;;;5.16;81.83
55675;BME280;41562;44.330;23.802;2022-12-18T07:27:34;101599.44;;;4.99;83.84
55675;BME280;41562;44.330;23.802;2022-12-18T07:30:15;101612.47;;;5.00;83.53
55675;BME280;41562;44.330;23.802;2022-12-18T07:32:50;101614.31;;;5.06;80.85
55675;BME280;41562;44.330;23.802;2022-12-18T07:35:21;101599.44;;;5.05;81.52
55675;BME280;41562;44.330;23.802;2022-12-18T07:37:52;101603.69;;;4.87;80.69
55675;BME280;41562;44.330;23.802;2022-12-18T07:40:23;101609.19;;;4.85;86.55
55675;BME280;41562;44.330;23.802;2022-12-18T07:42:57;101608.38;;;4.91;86.52
55675;BME280;41562;44.330;23.802;2022-12-18T07:45:25;101614.56;;;5.11;87.82
55675;BME280;41562;44.330;23.802;2022-12-18T07:47:52;101627.16;;;5.03;81.60
55675;BME280;41562;44.330;23.802;2022-12-18T07:50:29;101632.06;;;5.12;85.23
55675;BME280;41562;44.330;23.802;2022-12-18T07:53:01;101635.34;;;5.21;82.23
55675;BME280;41562;44.330;23.802;2022-12-18T07:55:32;101646.41;;;5.51;84.02
55675;BME280;41562;44.330;23.802;2022-12-18T07:58:26;101645.56;;;6.36;75.87
55675;BME280;41562;44.330;23.802;2022-12-18T08:00:54;101634.81;;;6.75;76.35
55675;BME280;41562;44.330;23.802;2022-12-18T08:03:24;101629.44;;;6.89;75.96
55675;BME280;41562;44.330;23.802;2022-12-18T08:05:58;101639.16;;;6.63;78.00
55675;BME280;41562;44.330;23.802;2022-12-18T08:08:30;101643.13;;;6.28;74.50
55675;BME280;41562;44.330;23.802;2022-12-18T08:11:00;101632.44;;;6.47;76.81
55675;BME280;41562;44.330;23.802;2022-12-18T08:13:33;101639.13;;;7.14;73.92
55675;BME280;41562;44.330;23.802;2022-12-18T08:16:05;101646.19;;;7.58;71.63
55675;BME280;41562;44.330;23.802;2022-12-18T08:18:40;101647.69;;;7.48;69.81
55675;BME280;41562;44.330;23.802;2022-12-18T08:21:12;101653.19;;;8.02;72.14
55675;BME280;41562;44.330;23.802;2022-12-18T08:23:44;101649.13;;;8.18;70.56
55675;BME280;41562;44.330;23.802;2022-12-18T08:26:15;101657.97;;;7.69;68.05
55675;BME280;41562;44.330;23.802;2022-12-18T08:28:53;101654.81;;;8.83;64.66
55675;BME280;41562;44.330;23.802;2022-12-18T08:31:24;101671.19;;;8.07;69.81
55675;BME280;41562;44.330;23.802;2022-12-18T08:33:58;101683.97;;;7.42;72.11
55675;BME280;41562;44.330;23.802;2022-12-18T08:36:32;101676.16;;;7.09;69.93
55675;BME280;41562;44.330;23.802;2022-12-18T08:39:02;101692.28;;;6.70;70.35
55675;BME280;41562;44.330;23.802;2022-12-18T08:41:30;101681.84;;;8.07;69.14
55675;BME280;41562;44.330;23.802;2022-12-18T08:43:58;101692.81;;;9.26;68.62
55675;BME280;41562;44.330;23.802;2022-12-18T08:46:53;101687.00;;;9.29;62.25
55675;BME280;41562;44.330;23.802;2022-12-18T08:49:21;101684.44;;;7.89;67.61
55675;BME280;41562;44.330;23.802;2022-12-18T08:51:54;101682.34;;;7.66;70.54
55675;BME280;41562;44.330;23.802;2022-12-18T08:54:28;101690.31;;;7.41;70.17
55675;BME280;41562;44.330;23.802;2022-12-18T08:57:01;101691.72;;;7.06;71.73
55675;BME280;41562;44.330;23.802;2022-12-18T08:59:32;101687.56;;;6.72;72.01
55675;BME280;41562;44.330;23.802;2022-12-18T09:02:03;101692.91;;;6.65;75.04
55675;BME280;41562;44.330;23.802;2022-12-18T09:04:34;101695.41;;;6.34;75.78
55675;BME280;41562;44.330;23.802;2022-12-18T09:07:04;101696.06;;;6.16;75.55
55675;BME280;41562;44.330;23.802;2022-12-18T09:09:38;101688.09;;;5.96;76.00
55675;BME280;41562;44.330;23.802;2022-12-18T09:12:05;101682.41;;;6.06;83.25
55675;BME280;41562;44.330;23.802;2022-12-18T09:14:43;101683.22;;;6.07;77.06
55675;BME280;41562;44.330;23.802;2022-12-18T09:17:18;101678.09;;;6.12;74.72
55675;BME280;41562;44.330;23.802;2022-12-18T09:19:49;101680.09;;;5.83;75.46
55675;BME280;41562;44.330;23.802;2022-12-18T09:22:20;101670.41;;;6.68;84.25
55675;BME280;41562;44.330;23.802;2022-12-18T09:24:53;101678.97;;;6.76;72.14
55675;BME280;41562;44.330;23.802;2022-12-18T09:27:24;101669.88;;;6.97;72.60
55675;BME280;41562;44.330;23.802;2022-12-18T09:30:03;101678.81;;;7.09;72.14
55675;BME280;41562;44.330;23.802;2022-12-18T09:32:38;101678.38;;;7.19;75.78
55675;BME280;41562;44.330;23.802;2022-12-18T09:35:11;101682.59;;;7.33;70.93
55675;BME280;41562;44.330;23.802;2022-12-18T09:37:41;101678.81;;;7.09;72.87
55675;BME280;41562;44.330;23.802;2022-12-18T09:40:18;101685.84;;;6.91;72.84
55675;BME280;41562;44.330;23.802;2022-12-18T09:42:53;101686.94;;;7.21;74.16
55675;BME280;41562;44.330;23.802;2022-12-18T09:45:23;101695.09;;;6.88;71.73
55675;BME280;41562;44.330;23.802;2022-12-18T09:47:52;101691.56;;;7.01;70.47
55675;BME280;41562;44.330;23.802;2022-12-18T09:50:32;101691.03;;;6.72;70.86
55675;BME280;41562;44.330;23.802;2022-12-18T09:53:08;101678.56;;;7.17;75.19
55675;BME280;41562;44.330;23.802;2022-12-18T09:55:43;101677.00;;;7.03;72.47
55675;BME280;41562;44.330;23.802;2022-12-18T09:58:21;101687.00;;;7.14;71.23
55675;BME280;41562;44.330;23.802;2022-12-18T10:00:56;101694.81;;;6.96;71.95
55675;BME280;41562;44.330;23.802;2022-12-18T10:03:34;101677.94;;;7.22;74.71
55675;BME280;41562;44.330;23.802;2022-12-18T10:06:16;101682.97;;;7.37;73.93
55675;BME280;41562;44.330;23.802;2022-12-18T10:09:20;101692.81;;;6.92;71.46
55675;BME280;41562;44.330;23.802;2022-12-18T10:12:02;101683.31;;;7.09;75.13
55675;BME280;41562;44.330;23.802;2022-12-18T10:17:45;101685.47;;;7.32;72.76
55675;BME280;41562;44.330;23.802;2022-12-18T10:20:45;101679.66;;;7.03;73.01
55675;BME280;41562;44.330;23.802;2022-12-18T10:23:29;101695.22;;;7.44;80.44
55675;BME280;41562;44.330;23.802;2022-12-18T10:26:08;101696.56;;;7.22;72.26
55675;BME280;41562;44.330;23.802;2022-12-18T10:28:38;101690.84;;;7.18;71.63
55675;BME280;41562;44.330;23.802;2022-12-18T10:31:18;101693.50;;;7.18;71.56
55675;BME280;41562;44.330;23.802;2022-12-18T10:33:56;101689.09;;;7.68;79.05
55675;BME280;41562;44.330;23.802;2022-12-18T10:36:27;101693.16;;;7.78;71.58
55675;BME280;41562;44.330;23.802;2022-12-18T10:39:22;101692.69;;;8.05;70.03
55675;BME280;41562;44.330;23.802;2022-12-18T10:41:52;101690.66;;;7.83;69.56
55675;BME280;41562;44.330;23.802;2022-12-18T10:44:45;101705.31;;;7.92;74.11
55675;BME280;41562;44.330;23.802;2022-12-18T10:47:18;101698.97;;;7.61;71.09
55675;BME280;41562;44.330;23.802;2022-12-18T10:49:53;101701.84;;;7.60;71.50
55675;BME280;41562;44.330;23.802;2022-12-18T10:52:34;101702.13;;;7.52;77.27
55675;BME280;41562;44.330;23.802;2022-12-18T10:55:18;101705.06;;;7.37;73.47
55675;BME280;41562;44.330;23.802;2022-12-18T10:57:55;101716.63;;;7.18;72.03
55675;BME280;41562;44.330;23.802;2022-12-18T11:00:43;101719.00;;;6.95;73.61
55675;BME280;41562;44.330;23.802;2022-12-18T11:03:46;101715.25;;;7.02;75.37
55675;BME280;41562;44.330;23.802;2022-12-18T11:06:20;101717.13;;;7.02;73.62
55675;BME280;41562;44.330;23.802;2022-12-18T11:09:02;101713.25;;;6.98;73.08
55675;BME280;41562;44.330;23.802;2022-12-18T11:11:50;101718.94;;;7.08;81.82
55675;BME280;41562;44.330;23.802;2022-12-18T11:14:35;101722.81;;;7.12;75.05
55675;BME280;41562;44.330;23.802;2022-12-18T11:17:25;101706.00;;;7.18;81.92
55675;BME280;41562;44.330;23.802;2022-12-18T11:20:01;101722.19;;;7.10;74.37
55675;BME280;41562;44.330;23.802;2022-12-18T11:22:36;101724.22;;;7.14;75.21
55675;BME280;41562;44.330;23.802;2022-12-18T11:25:18;101726.91;;;7.08;76.05
55675;BME280;41562;44.330;23.802;2022-12-18T11:28:25;101729.19;;;6.98;74.98
55675;BME280;41562;44.330;23.802;2022-12-18T11:30:49;101732.31;;;6.81;75.79
55675;BME280;41562;44.330;23.802;2022-12-18T11:33:21;101738.63;;;6.94;76.66
55675;BME280;41562;44.330;23.802;2022-12-18T11:36:06;101739.81;;;7.04;76.99
55675;BME280;41562;44.330;23.802;2022-12-18T11:38:40;101735.66;;;7.15;74.64
55675;BME280;41562;44.330;23.802;2022-12-18T11:41:19;101738.69;;;7.25;73.66
55675;BME280;41562;44.330;23.802;2022-12-18T11:43:56;101737.13;;;7.11;74.07
55675;BME280;41562;44.330;23.802;2022-12-18T11:46:48;101743.91;;;7.07;74.84
55675;BME280;41562;44.330;23.802;2022-12-18T11:49:28;101746.56;;;7.07;74.26
55675;BME280;41562;44.330;23.802;2022-12-18T11:54:37;101747.34;;;7.58;73.40
55675;BME280;41562;44.330;23.802;2022-12-18T12:05:57;101750.50;;;6.84;77.51
55675;BME280;41562;44.330;23.802;2022-12-18T12:22:45;101752.97;;;6.79;79.35
55675;BME280;41562;44.330;23.802;2022-12-18T12:28:01;101750.91;;;6.95;79.83
55675;BME280;41562;44.330;23.802;2022-12-18T12:31:07;101761.97;;;6.78;80.21
55675;BME280;41562;44.330;23.802;2022-12-18T12:38:53;101765.19;;;7.00;80.94
55675;BME280;41562;44.330;23.802;2022-12-18T12:41:29;101762.38;;;6.89;81.81
55675;BME280;41562;44.330;23.802;2022-12-18T12:44:09;101767.06;;;6.86;84.90
55675;BME280;41562;44.330;23.802;2022-12-18T12:46:41;101770.63;;;6.41;87.59
55675;BME280;41562;44.330;23.802;2022-12-18T12:49:14;101770.41;;;6.29;89.21
55675;BME280;41562;44.330;23.802;2022-12-18T12:51:52;101775.13;;;6.40;88.98
55675;BME280;41562;44.330;23.802;2022-12-18T12:54:30;101781.66;;;6.31;91.53
55675;BME280;41562;44.330;23.802;2022-12-18T12:57:43;101779.38;;;5.95;92.60
55675;BME280;41562;44.330;23.802;2022-12-18T13:00:10;101777.19;;;6.19;92.75
55675;BME280;41562;44.330;23.802;2022-12-18T13:05:20;101800.44;;;6.17;93.61
55675;BME280;41562;44.330;23.802;2022-12-18T13:08:21;101802.69;;;6.26;94.08
55675;BME280;41562;44.330;23.802;2022-12-18T13:10:50;101814.47;;;5.84;96.61
55675;BME280;41562;44.330;23.802;2022-12-18T13:13:17;101815.09;;;5.86;98.06
55675;BME280;41562;44.330;23.802;2022-12-18T13:16:07;101818.94;;;5.77;98.39
55675;BME280;41562;44.330;23.802;2022-12-18T13:18:48;101824.03;;;5.72;97.96
55675;BME280;41562;44.330;23.802;2022-12-18T13:24:14;101826.84;;;5.64;100.00
55675;BME280;41562;44.330;23.802;2022-12-18T13:26:44;101828.59;;;5.37;100.00
55675;BME280;41562;44.330;23.802;2022-12-18T13:29:42;101829.22;;;5.46;100.00
55675;BME280;41562;44.330;23.802;2022-12-18T13:32:23;101830.25;;;5.45;100.00
55675;BME280;41562;44.330;23.802;2022-12-18T13:37:52;101832.47;;;5.35;100.00
55675;BME280;41562;44.330;23.802;2022-12-18T13:46:24;101850.16;;;5.28;100.00
55675;BME280;41562;44.330;23.802;2022-12-18T13:49:38;101860.13;;;5.25;100.00
55675;BME280;41562;44.330;23.802;2022-12-18T13:52:38;101860.13;;;5.25;100.00
55675;BME280;41562;44.330;23.802;2022-12-18T13:55:16;101847.34;;;5.36;100.00
55675;BME280;41562;44.330;23.802;2022-12-18T13:57:44;101850.81;;;5.30;100.00
55675;BME280;41562;44.330;23.802;2022-12-18T14:00:30;101863.63;;;5.26;100.00
55675;BME280;41562;44.330;23.802;2022-12-18T14:03:15;101864.25;;;5.28;100.00
55675;BME280;41562;44.330;23.802;2022-12-18T14:05:54;101874.63;;;5.23;100.00
55675;BME280;41562;44.330;23.802;2022-12-18T14:08:27;101875.44;;;5.23;100.00
55675;BME280;41562;44.330;23.802;2022-12-18T14:11:04;101876.41;;;5.16;100.00
55675;BME280;41562;44.330;23.802;2022-12-18T14:13:40;101873.13;;;5.14;100.00
55675;BME280;41562;44.330;23.802;2022-12-18T14:16:14;101877.09;;;5.24;100.00
55675;BME280;41562;44.330;23.802;2022-12-18T14:18:57;101876.41;;;5.16;100.00
55675;BME280;41562;44.330;23.802;2022-12-18T14:21:50;101885.81;;;5.18;100.00
55675;BME280;41562;44.330;23.802;2022-12-18T14:24:21;101886.97;;;5.09;100.00
55675;BME280;41562;44.330;23.802;2022-12-18T14:26:57;101875.09;;;4.99;100.00
55675;BME280;41562;44.330;23.802;2022-12-18T14:29:45;101884.09;;;5.04;100.00
55675;BME280;41562;44.330;23.802;2022-12-18T14:32:20;101882.31;;;5.11;100.00
55675;BME280;41562;44.330;23.802;2022-12-18T14:34:56;101893.19;;;4.95;100.00
55675;BME280;41562;44.330;23.802;2022-12-18T14:37:24;101898.72;;;5.00;100.00
55675;BME280;41562;44.330;23.802;2022-12-18T14:40:11;101901.53;;;4.92;100.00
55675;BME280;41562;44.330;23.802;2022-12-18T14:42:45;101908.97;;;5.03;100.00
55675;BME280;41562;44.330;23.802;2022-12-18T14:45:49;101905.97;;;4.85;100.00
55675;BME280;41562;44.330;23.802;2022-12-18T14:48:21;101905.84;;;4.93;100.00